Time;durP1;ratioP1;P1;durP2;ratioP2;P2;SDS_P1;SDS_P2;PMS_P1;PMS_P2;Temp;Humidity;BMP_temperature;BMP_pressure;BME280_temperature;BME280_humidity;BME280_pressure;Samples;Min_cycle;Max_cycle;Signal;HPM_P1;HPM_P2
2021/11/29 00:00:38;;;;;;;55.03;39.70;;;3.60;99.90;;;;;;4987951;28;20390;-82
2021/11/29 00:03:11;;;;;;;56.28;40.00;;;3.70;99.90;;;;;;4971239;28;20404;-82
2021/11/29 00:05:37;;;;;;;58.05;39.97;;;3.70;99.90;;;;;;4977890;28;20520;-82
2021/11/29 00:08:05;;;;;;;59.75;41.92;;;3.70;99.90;;;;;;4989922;28;20435;-81
2021/11/29 00:10:32;;;;;;;55.15;39.42;;;3.70;99.90;;;;;;4970887;28;20420;-82
2021/11/29 00:12:58;;;;;;;54.55;40.33;;;3.70;99.90;;;;;;4972735;28;20378;-82
2021/11/29 00:15:25;;;;;;;55.17;39.77;;;3.70;99.90;;;;;;4969820;28;20480;-82
2021/11/29 00:17:50;;;;;;;60.55;42.00;;;3.70;99.90;;;;;;4971098;28;20385;-83
2021/11/29 00:20:17;;;;;;;59.65;40.30;;;3.70;99.90;;;;;;4985130;28;20396;-82
2021/11/29 00:22:43;;;;;;;58.35;40.05;;;3.60;99.90;;;;;;4972452;28;20426;-82
2021/11/29 00:25:10;;;;;;;61.28;41.83;;;3.70;99.90;;;;;;4972143;28;20438;-82
2021/11/29 00:27:38;;;;;;;62.05;42.15;;;3.70;99.90;;;;;;4970681;28;20816;-82
2021/11/29 00:30:09;;;;;;;61.97;42.60;;;3.70;99.90;;;;;;4969751;28;20407;-82
2021/11/29 00:32:36;;;;;;;61.17;41.17;;;3.70;99.90;;;;;;4978585;28;20938;-82
2021/11/29 00:35:02;;;;;;;59.45;42.13;;;3.70;99.90;;;;;;4967224;28;20391;-82
2021/11/29 00:37:28;;;;;;;64.80;43.10;;;3.70;99.90;;;;;;4987286;28;20920;-82
2021/11/29 00:39:54;;;;;;;63.30;42.17;;;3.60;99.90;;;;;;4969809;28;20442;-82
2021/11/29 00:42:20;;;;;;;61.00;40.92;;;3.70;99.90;;;;;;4971826;28;20386;-82
2021/11/29 00:44:46;;;;;;;65.55;44.05;;;3.70;99.90;;;;;;4968346;28;20854;-82
2021/11/29 00:47:11;;;;;;;67.68;45.33;;;3.70;99.90;;;;;;4968480;28;20892;-82
2021/11/29 00:49:38;;;;;;;68.03;45.53;;;3.70;99.90;;;;;;4974019;28;20853;-82
2021/11/29 00:52:04;;;;;;;73.20;45.58;;;3.60;99.90;;;;;;4970931;28;20466;-81
2021/11/29 00:54:30;;;;;;;63.75;43.92;;;3.60;99.90;;;;;;4966725;28;20432;-82
2021/11/29 00:56:56;;;;;;;64.95;43.00;;;3.60;99.90;;;;;;4977925;28;20441;-82
2021/11/29 00:59:21;;;;;;;71.53;47.22;;;3.60;99.90;;;;;;4971379;28;20485;-81
2021/11/29 01:01:47;;;;;;;74.00;47.20;;;3.60;99.90;;;;;;4971749;28;20481;-80
2021/11/29 01:04:13;;;;;;;69.70;46.78;;;3.60;99.90;;;;;;4971534;28;20489;-81
2021/11/29 01:06:39;;;;;;;77.00;49.87;;;3.60;99.90;;;;;;4971598;28;20386;-81
2021/11/29 01:09:05;;;;;;;75.47;49.80;;;3.60;99.90;;;;;;4971219;28;20921;-81
2021/11/29 01:11:31;;;;;;;76.68;48.03;;;3.50;99.90;;;;;;4966710;28;20392;-82
2021/11/29 01:13:57;;;;;;;73.90;48.40;;;3.50;99.90;;;;;;4952934;28;20453;-82
2021/11/29 01:16:23;;;;;;;72.63;47.90;;;3.50;99.90;;;;;;4984564;28;20511;-82
2021/11/29 01:18:49;;;;;;;76.70;49.50;;;3.50;99.90;;;;;;4971453;28;20390;-82
2021/11/29 01:21:14;;;;;;;78.35;49.65;;;3.40;99.90;;;;;;4970912;28;20397;-81
2021/11/29 01:23:41;;;;;;;72.15;48.78;;;3.50;99.90;;;;;;4971108;28;20805;-82
2021/11/29 01:26:07;;;;;;;75.70;47.88;;;3.50;99.90;;;;;;4971409;28;20414;-82
2021/11/29 01:28:33;;;;;;;72.45;48.05;;;3.50;99.90;;;;;;4970054;28;20460;-82
2021/11/29 01:30:59;;;;;;;77.18;48.50;;;3.50;99.90;;;;;;4970704;28;20414;-82
2021/11/29 01:33:25;;;;;;;74.97;49.58;;;3.40;99.90;;;;;;4985908;28;20390;-81
2021/11/29 01:35:51;;;;;;;79.30;50.95;;;3.40;99.90;;;;;;4970772;28;20411;-83
2021/11/29 01:38:17;;;;;;;78.85;50.30;;;3.30;99.90;;;;;;4985599;28;20425;-83
2021/11/29 01:40:42;;;;;;;81.75;53.28;;;3.30;99.90;;;;;;4954173;28;20410;-82
2021/11/29 01:43:14;;;;;;;77.17;49.47;;;3.30;99.90;;;;;;4969518;28;20452;-82
2021/11/29 01:45:49;;;;;;;78.70;48.90;;;3.40;99.90;;;;;;4969458;28;20430;-82
2021/11/29 01:48:15;;;;;;;79.78;50.50;;;3.40;99.90;;;;;;4969174;28;20422;-82
2021/11/29 01:50:45;;;;;;;77.10;48.45;;;3.40;99.90;;;;;;4984999;28;20445;-82
2021/11/29 01:53:11;;;;;;;81.27;49.50;;;3.40;99.90;;;;;;4985443;28;20487;-82
2021/11/29 01:55:38;;;;;;;78.95;50.30;;;3.40;99.90;;;;;;4952978;28;20410;-82
2021/11/29 01:58:05;;;;;;;83.88;51.85;;;3.40;99.90;;;;;;4970874;28;20390;-82
2021/11/29 02:00:34;;;;;;;82.28;51.17;;;3.40;99.90;;;;;;4985681;28;20478;-82
2021/11/29 02:03:01;;;;;;;81.43;51.28;;;3.40;99.90;;;;;;4968828;28;20867;-82
2021/11/29 02:05:28;;;;;;;79.55;50.83;;;3.50;99.90;;;;;;4970492;28;20390;-81
2021/11/29 02:07:54;;;;;;;84.80;51.67;;;3.50;99.90;;;;;;4985395;28;20402;-82
2021/11/29 02:10:22;;;;;;;79.65;50.60;;;3.50;99.90;;;;;;4969906;28;20402;-81
2021/11/29 02:12:49;;;;;;;82.15;50.65;;;3.50;99.90;;;;;;4969213;28;20917;-81
2021/11/29 02:15:15;;;;;;;83.70;52.17;;;3.50;99.90;;;;;;4970745;28;20379;-81
2021/11/29 02:17:42;;;;;;;84.22;52.22;;;3.50;99.90;;;;;;4970622;28;20413;-81
2021/11/29 02:20:09;;;;;;;82.75;50.65;;;3.40;99.90;;;;;;4956061;28;20404;-82
2021/11/29 02:22:35;;;;;;;81.72;51.03;;;3.50;99.90;;;;;;4975650;28;21053;-81
2021/11/29 02:25:02;;;;;;;78.03;49.83;;;3.50;99.90;;;;;;4970086;28;20974;-82
2021/11/29 02:27:28;;;;;;;73.85;48.65;;;3.60;99.90;;;;;;4985208;28;20456;-82
2021/11/29 02:29:55;;;;;;;83.97;51.22;;;3.60;99.90;;;;;;4969339;28;20410;-82
2021/11/29 02:32:21;;;;;;;79.18;49.10;;;3.60;99.90;;;;;;4969680;28;20531;-82
2021/11/29 02:34:47;;;;;;;75.75;48.47;;;3.60;99.90;;;;;;4969728;28;20873;-82
2021/11/29 02:37:13;;;;;;;76.85;48.70;;;3.70;99.90;;;;;;4968976;28;20746;-82
2021/11/29 02:39:41;;;;;;;72.83;46.80;;;3.70;99.90;;;;;;4964328;28;20487;-82
2021/11/29 02:42:09;;;;;;;73.38;47.90;;;3.60;99.90;;;;;;4975543;28;20389;-82
2021/11/29 02:44:35;;;;;;;76.45;48.50;;;3.70;99.90;;;;;;4969660;28;20398;-83
2021/11/29 02:47:02;;;;;;;73.88;47.85;;;3.70;99.90;;;;;;4970150;28;20382;-82
2021/11/29 02:49:28;;;;;;;72.25;47.28;;;3.70;99.90;;;;;;4969538;28;20417;-82
2021/11/29 02:51:57;;;;;;;74.78;49.28;;;3.70;99.90;;;;;;4983861;28;20410;-83
2021/11/29 02:54:31;;;;;;;73.15;46.35;;;3.70;99.90;;;;;;4970101;28;20881;-82
2021/11/29 02:57:03;;;;;;;83.00;49.42;;;3.70;99.90;;;;;;4984280;28;20927;-82
2021/11/29 02:59:32;;;;;;;81.97;50.85;;;3.70;99.90;;;;;;4969542;28;20464;-81
2021/11/29 03:02:03;;;;;;;76.57;48.65;;;3.70;99.90;;;;;;4984705;28;20786;-82
2021/11/29 03:04:30;;;;;;;77.93;48.60;;;3.70;99.90;;;;;;4968366;28;20900;-83
2021/11/29 03:06:57;;;;;;;81.50;50.70;;;3.70;99.90;;;;;;4984907;28;20395;-82
2021/11/29 03:09:23;;;;;;;78.90;48.50;;;3.70;99.90;;;;;;4967890;28;20402;-82
2021/11/29 03:11:50;;;;;;;80.13;50.35;;;3.70;99.90;;;;;;4968940;28;20410;-81
2021/11/29 03:14:16;;;;;;;78.05;50.25;;;3.70;99.90;;;;;;4969476;28;20434;-82
2021/11/29 03:16:43;;;;;;;87.55;53.63;;;3.70;99.90;;;;;;4969207;28;20402;-82
2021/11/29 03:19:09;;;;;;;81.03;49.38;;;3.70;99.90;;;;;;4969966;28;20810;-82
2021/11/29 03:21:35;;;;;;;79.40;50.42;;;3.70;99.90;;;;;;4969018;28;20421;-81
2021/11/29 03:24:04;;;;;;;89.07;52.83;;;3.70;99.90;;;;;;4969580;28;20794;-82
2021/11/29 03:26:31;;;;;;;85.60;53.30;;;3.60;99.90;;;;;;4983347;28;20425;-82
2021/11/29 03:28:59;;;;;;;82.30;50.65;;;3.60;99.90;;;;;;4984378;28;20876;-82
2021/11/29 03:31:27;;;;;;;84.10;51.47;;;3.60;99.90;;;;;;4969042;28;20395;-82
2021/11/29 03:33:56;;;;;;;91.20;53.63;;;3.60;99.90;;;;;;4968867;28;20923;-83
2021/11/29 03:36:24;;;;;;;78.63;50.55;;;3.50;99.90;;;;;;4968761;28;20405;-81
2021/11/29 03:38:49;;;;;;;82.93;50.83;;;3.40;99.90;;;;;;4968852;28;20390;-82
2021/11/29 03:41:15;;;;;;;87.13;52.08;;;3.50;99.90;;;;;;4969008;28;20405;-83
2021/11/29 03:43:41;;;;;;;87.80;53.95;;;3.60;99.90;;;;;;4984354;28;20386;-81
2021/11/29 03:46:08;;;;;;;84.10;54.05;;;3.50;99.90;;;;;;4968072;28;20391;-81
2021/11/29 03:48:35;;;;;;;83.82;52.75;;;3.50;99.90;;;;;;4984271;28;20480;-81
2021/11/29 03:51:01;;;;;;;80.18;49.75;;;3.40;99.90;;;;;;4970157;28;20449;-82
2021/11/29 03:53:27;;;;;;;82.35;51.03;;;3.50;99.90;;;;;;4973016;28;20406;-82
2021/11/29 03:55:53;;;;;;;77.80;48.73;;;3.50;99.90;;;;;;4973236;28;20497;-82
2021/11/29 03:58:19;;;;;;;81.25;50.40;;;3.50;99.90;;;;;;4987755;28;20385;-81
2021/11/29 04:00:45;;;;;;;92.72;55.30;;;3.50;99.90;;;;;;4970742;28;20403;-82
2021/11/29 04:03:11;;;;;;;84.00;52.00;;;3.40;99.90;;;;;;4972701;28;20528;-82
2021/11/29 04:05:37;;;;;;;83.10;50.63;;;3.40;99.90;;;;;;4972934;28;20956;-82
2021/11/29 04:08:03;;;;;;;84.88;50.65;;;3.40;99.90;;;;;;4971958;28;20418;-82
2021/11/29 04:10:29;;;;;;;88.73;53.47;;;3.50;99.90;;;;;;4971071;28;20801;-82
2021/11/29 04:12:55;;;;;;;83.32;51.22;;;3.50;99.90;;;;;;4972418;28;20398;-81
2021/11/29 04:15:22;;;;;;;86.82;52.35;;;3.50;99.90;;;;;;4972378;28;20421;-82
2021/11/29 04:17:48;;;;;;;82.88;50.80;;;3.50;99.90;;;;;;4983139;28;20410;-82
2021/11/29 04:20:15;;;;;;;86.27;52.60;;;3.40;99.90;;;;;;4972454;28;20391;-82
2021/11/29 04:22:45;;;;;;;83.60;51.13;;;3.50;99.90;;;;;;4972279;28;20398;-82
2021/11/29 04:25:12;;;;;;;81.35;50.78;;;3.50;99.90;;;;;;4972209;28;20510;-82
2021/11/29 04:27:40;;;;;;;78.88;50.13;;;3.50;99.90;;;;;;4986793;28;20425;-82
2021/11/29 04:30:11;;;;;;;77.45;48.63;;;3.50;99.90;;;;;;4971027;28;20465;-82
2021/11/29 04:32:37;;;;;;;83.20;52.17;;;3.50;99.90;;;;;;4985006;28;20430;-82
2021/11/29 04:35:04;;;;;;;86.65;51.45;;;3.50;99.90;;;;;;4972518;28;20448;-81
2021/11/29 04:37:30;;;;;;;86.18;53.05;;;3.50;99.90;;;;;;4972392;28;20506;-82
2021/11/29 04:39:55;;;;;;;86.72;51.90;;;3.60;99.90;;;;;;4971649;28;20933;-82
2021/11/29 04:42:21;;;;;;;77.63;49.20;;;3.50;99.90;;;;;;4986597;28;20948;-82
2021/11/29 04:44:47;;;;;;;82.87;51.37;;;3.50;99.90;;;;;;4970917;28;20462;-83
2021/11/29 04:47:12;;;;;;;83.53;51.77;;;3.50;99.90;;;;;;4969887;28;20479;-82
2021/11/29 04:49:40;;;;;;;86.82;54.40;;;3.50;99.90;;;;;;4986944;28;20442;-82
2021/11/29 04:52:06;;;;;;;93.30;56.50;;;3.50;99.90;;;;;;4970964;28;20542;-82
2021/11/29 04:54:32;;;;;;;91.05;55.53;;;3.40;99.90;;;;;;4964495;28;20390;-82
2021/11/29 04:56:57;;;;;;;90.43;55.72;;;3.40;99.90;;;;;;4971024;28;20473;-82
2021/11/29 04:59:23;;;;;;;93.15;57.22;;;3.40;99.90;;;;;;4971064;28;20389;-82
2021/11/29 05:01:49;;;;;;;87.45;54.25;;;3.40;99.90;;;;;;4986364;28;20450;-82
2021/11/29 05:04:15;;;;;;;92.13;56.57;;;3.40;99.90;;;;;;4983353;28;20450;-82
2021/11/29 05:06:40;;;;;;;95.70;56.83;;;3.40;99.90;;;;;;4960646;28;20398;-82
2021/11/29 05:09:09;;;;;;;91.03;56.27;;;3.30;99.90;;;;;;4971417;28;20410;-82
2021/11/29 05:11:35;;;;;;;96.15;58.25;;;3.30;99.90;;;;;;4969512;28;20438;-82
2021/11/29 05:14:02;;;;;;;95.47;58.17;;;3.30;99.90;;;;;;4971648;28;20430;-83
2021/11/29 05:16:28;;;;;;;93.80;56.58;;;3.30;99.90;;;;;;4986548;28;20394;-81
2021/11/29 05:18:55;;;;;;;84.17;53.37;;;3.30;99.90;;;;;;4985782;28;20401;-81
2021/11/29 05:21:20;;;;;;;87.78;54.85;;;3.40;99.90;;;;;;4971078;28;20445;-82
2021/11/29 05:23:48;;;;;;;91.20;57.67;;;3.50;99.90;;;;;;4971278;28;20488;-82
2021/11/29 05:26:18;;;;;;;81.63;53.10;;;3.40;99.90;;;;;;4973090;28;20382;-82
2021/11/29 05:28:43;;;;;;;90.63;56.78;;;3.40;99.90;;;;;;4971689;28;20442;-82
2021/11/29 05:31:09;;;;;;;86.63;56.42;;;3.30;99.90;;;;;;4970603;28;20423;-82
2021/11/29 05:33:35;;;;;;;86.60;55.22;;;3.30;99.90;;;;;;4984461;28;20479;-82
2021/11/29 05:36:02;;;;;;;87.77;56.03;;;3.20;99.90;;;;;;4952925;28;20392;-82
2021/11/29 05:38:28;;;;;;;84.53;54.03;;;3.30;99.90;;;;;;4956699;28;20386;-81
2021/11/29 05:40:54;;;;;;;79.00;53.03;;;3.20;99.90;;;;;;4970432;28;20931;-82
2021/11/29 05:43:20;;;;;;;86.75;54.70;;;3.20;99.90;;;;;;4970569;28;20936;-81
2021/11/29 05:45:45;;;;;;;81.88;52.30;;;3.10;99.90;;;;;;4985469;28;20489;-81
2021/11/29 05:48:11;;;;;;;79.00;52.58;;;3.10;99.90;;;;;;4970932;28;20889;-82
2021/11/29 05:50:37;;;;;;;73.47;49.83;;;3.20;99.90;;;;;;4969494;28;20414;-82
2021/11/29 05:53:04;;;;;;;78.50;51.95;;;3.20;99.90;;;;;;4970097;28;20465;-82
2021/11/29 05:55:29;;;;;;;79.27;51.53;;;3.10;99.90;;;;;;4970935;28;20394;-82
2021/11/29 05:57:55;;;;;;;80.43;52.97;;;3.10;99.90;;;;;;4968909;28;20890;-81
2021/11/29 06:00:22;;;;;;;82.38;51.20;;;3.00;99.90;;;;;;4970405;28;20390;-82
2021/11/29 06:02:48;;;;;;;78.15;51.22;;;3.00;99.90;;;;;;4984795;28;20449;-82
2021/11/29 06:05:15;;;;;;;76.05;49.72;;;3.00;99.90;;;;;;4966314;28;20396;-82
2021/11/29 06:07:42;;;;;;;74.72;50.75;;;3.00;99.90;;;;;;4966626;28;20738;-82
2021/11/29 06:10:09;;;;;;;73.05;48.55;;;3.00;99.90;;;;;;4985383;28;20955;-83
2021/11/29 06:12:35;;;;;;;70.60;46.90;;;3.00;99.90;;;;;;4984957;28;20461;-81
2021/11/29 06:15:01;;;;;;;71.37;48.20;;;3.00;99.90;;;;;;4969670;28;20423;-82
2021/11/29 06:17:27;;;;;;;76.97;50.90;;;3.00;99.90;;;;;;4963637;28;20424;-82
2021/11/29 06:19:53;;;;;;;75.10;48.60;;;2.90;99.90;;;;;;4967086;28;20749;-82
2021/11/29 07:27:08;;;;;;;67.90;46.97;;;3.30;99.90;;;;;;5926330;23;20676;-83
2021/11/29 07:29:34;;;;;;;62.87;44.23;;;3.40;99.90;;;;;;4972889;28;20414;-86
2021/11/29 07:31:59;;;;;;;68.10;47.43;;;3.50;99.90;;;;;;4961776;28;20758;-85
2021/11/29 07:34:26;;;;;;;68.57;46.57;;;3.40;99.90;;;;;;4956414;28;20406;-85
2021/11/29 07:36:52;;;;;;;65.70;45.58;;;3.40;99.90;;;;;;4973750;28;20417;-84
2021/11/29 07:39:17;;;;;;;63.55;45.08;;;3.50;99.90;;;;;;4974015;28;20822;-85
2021/11/29 07:41:44;;;;;;;62.25;44.67;;;3.60;99.90;;;;;;4973370;28;20448;-87
2021/11/29 07:44:09;;;;;;;65.82;45.50;;;3.50;99.90;;;;;;4956301;28;20473;-83
2021/11/29 07:46:35;;;;;;;67.68;46.17;;;3.60;99.90;;;;;;4973602;28;20477;-85
2021/11/29 07:49:02;;;;;;;66.80;46.53;;;3.50;99.90;;;;;;4956301;28;20924;-84
2021/11/29 07:51:28;;;;;;;69.65;47.15;;;3.40;99.90;;;;;;4956386;28;20749;-85
2021/11/29 07:53:54;;;;;;;62.67;45.00;;;3.40;99.90;;;;;;4973664;28;20476;-85
2021/11/29 07:56:20;;;;;;;67.80;48.60;;;3.50;99.90;;;;;;4973896;28;20494;-86
2021/11/29 07:58:46;;;;;;;64.55;46.00;;;3.50;99.90;;;;;;4972110;28;20414;-85
2021/11/29 08:01:12;;;;;;;69.68;48.05;;;3.50;99.90;;;;;;4970411;28;20911;-84
2021/11/29 08:03:39;;;;;;;71.80;50.33;;;3.60;99.90;;;;;;4955931;28;20465;-85
2021/11/29 08:06:04;;;;;;;71.35;49.92;;;3.50;99.90;;;;;;4956932;28;20406;-86
2021/11/29 08:08:30;;;;;;;69.13;49.00;;;3.50;99.90;;;;;;4973703;28;20410;-86
2021/11/29 08:10:56;;;;;;;70.53;50.03;;;3.40;99.90;;;;;;4972025;28;20722;-87
2021/11/29 08:13:22;;;;;;;71.30;50.20;;;3.50;99.90;;;;;;4972224;28;20405;-86
2021/11/29 08:15:48;;;;;;;72.97;50.08;;;3.50;99.90;;;;;;4955920;28;20397;-83
2021/11/29 08:18:14;;;;;;;73.50;51.50;;;3.50;99.90;;;;;;4955956;28;20910;-84
2021/11/29 08:20:40;;;;;;;73.07;49.65;;;3.40;99.90;;;;;;4955761;28;20394;-88
2021/11/29 08:23:08;;;;;;;71.82;50.33;;;3.50;99.90;;;;;;4957535;28;20753;-85
2021/11/29 08:25:34;;;;;;;74.70;51.55;;;3.50;99.90;;;;;;4971727;28;20405;-85
2021/11/29 08:28:00;;;;;;;75.20;52.60;;;3.50;99.90;;;;;;4972393;28;20402;-86
2021/11/29 08:30:27;;;;;;;75.43;51.65;;;3.50;99.90;;;;;;4972997;28;20382;-87
2021/11/29 08:32:54;;;;;;;77.35;51.65;;;3.50;99.90;;;;;;4972724;28;20401;-87
2021/11/29 08:35:20;;;;;;;69.68;49.85;;;3.50;99.90;;;;;;4956430;28;21127;-85
2021/11/29 08:37:46;;;;;;;66.22;48.45;;;3.70;99.90;;;;;;4955034;28;20873;-85
2021/11/29 08:40:18;;;;;;;71.88;50.78;;;3.70;99.90;;;;;;4972911;28;20901;-87
2021/11/29 08:42:44;;;;;;;66.13;48.40;;;3.80;99.90;;;;;;4973171;28;20480;-88
2021/11/29 08:45:10;;;;;;;67.10;48.72;;;3.90;99.90;;;;;;4971425;28;20421;-83
2021/11/29 08:47:36;;;;;;;65.60;47.88;;;3.90;99.90;;;;;;4972773;28;20386;-83
2021/11/29 08:50:05;;;;;;;62.63;46.30;;;4.00;99.90;;;;;;4972577;28;20518;-86
2021/11/29 08:52:34;;;;;;;63.17;46.35;;;3.90;99.90;;;;;;4972011;28;20401;-88
2021/11/29 08:55:03;;;;;;;64.00;46.25;;;3.90;99.90;;;;;;4972944;28;20481;-86
2021/11/29 08:57:28;;;;;;;67.15;48.40;;;4.00;99.90;;;;;;4954565;28;20742;-83
2021/11/29 08:59:54;;;;;;;65.18;46.70;;;3.90;99.90;;;;;;4972189;28;20410;-84
2021/11/29 09:02:20;;;;;;;69.93;48.20;;;3.90;99.90;;;;;;4961819;28;20394;-87
2021/11/29 09:04:45;;;;;;;67.43;48.83;;;3.90;99.90;;;;;;4971281;28;20711;-85
2021/11/29 09:07:11;;;;;;;65.23;45.90;;;3.90;99.90;;;;;;4971795;28;20422;-84
2021/11/29 09:09:37;;;;;;;65.83;45.73;;;4.00;99.90;;;;;;4972757;28;20406;-86
2021/11/29 09:12:03;;;;;;;63.13;44.90;;;4.10;99.90;;;;;;4971220;28;20393;-87
2021/11/29 09:14:29;;;;;;;61.95;44.42;;;4.10;99.90;;;;;;4954679;28;20805;-88
2021/11/29 09:16:56;;;;;;;62.78;45.28;;;4.10;99.90;;;;;;4954787;28;20393;-86
2021/11/29 09:19:23;;;;;;;60.85;43.63;;;4.10;99.90;;;;;;4955061;28;20417;-85
2021/11/29 09:21:49;;;;;;;60.38;43.08;;;4.10;99.90;;;;;;4961716;28;20405;-84
2021/11/29 09:24:14;;;;;;;59.15;43.75;;;4.10;99.90;;;;;;4970691;28;20402;-83
2021/11/29 09:26:40;;;;;;;60.80;43.50;;;4.20;99.90;;;;;;4970107;28;20753;-83
2021/11/29 09:29:06;;;;;;;60.78;43.05;;;4.20;99.90;;;;;;4971596;28;20420;-86
2021/11/29 09:31:32;;;;;;;58.55;43.42;;;4.10;99.90;;;;;;4967468;28;20789;-84
2021/11/29 09:33:57;;;;;;;57.00;42.27;;;4.20;99.90;;;;;;4971673;28;20821;-86
2021/11/29 09:36:23;;;;;;;59.27;42.67;;;4.30;99.90;;;;;;4970473;28;20390;-87
2021/11/29 09:38:49;;;;;;;58.30;43.03;;;4.30;99.90;;;;;;4971969;28;20490;-87
2021/11/29 09:41:17;;;;;;;58.10;42.47;;;4.40;99.90;;;;;;4971148;28;20470;-86
2021/11/29 09:43:43;;;;;;;53.50;40.13;;;4.40;99.90;;;;;;4954241;28;20432;-86
2021/11/29 09:46:09;;;;;;;56.00;41.78;;;4.40;99.90;;;;;;4958732;28;20482;-83
2021/11/29 09:48:35;;;;;;;57.45;41.85;;;4.40;99.90;;;;;;4954230;28;20931;-87
2021/11/29 09:51:01;;;;;;;62.28;44.30;;;4.30;99.90;;;;;;4971371;28;20470;-85
2021/11/29 09:53:30;;;;;;;56.83;41.47;;;4.20;99.90;;;;;;4971763;28;20477;-84
2021/11/29 09:55:58;;;;;;;59.70;42.42;;;4.20;99.90;;;;;;4968298;28;20892;-87
2021/11/29 09:58:23;;;;;;;55.70;40.90;;;4.10;99.90;;;;;;4971447;28;20749;-87
2021/11/29 10:00:55;;;;;;;52.33;37.47;;;4.10;99.90;;;;;;4955037;28;20394;-82
2021/11/29 10:03:21;;;;;;;56.25;40.55;;;4.10;99.90;;;;;;4953984;28;20390;-85
2021/11/29 10:05:48;;;;;;;55.83;39.05;;;3.90;99.90;;;;;;4971564;28;20386;-85
2021/11/29 10:08:18;;;;;;;54.83;38.67;;;3.80;99.90;;;;;;4971652;28;20466;-83
2021/11/29 10:11:13;;;;;;;53.83;37.78;;;3.70;99.90;;;;;;4971307;28;20453;-82
2021/11/29 10:14:05;;;;;;;55.47;38.45;;;3.70;99.90;;;;;;4970359;28;20389;-84
2021/11/29 10:16:35;;;;;;;54.90;37.67;;;3.80;99.90;;;;;;4954211;28;20490;-83
2021/11/29 10:19:03;;;;;;;55.60;37.92;;;3.80;99.90;;;;;;4970979;28;20386;-86
2021/11/29 10:21:29;;;;;;;56.97;38.72;;;3.80;99.90;;;;;;4970801;28;20414;-84
2021/11/29 10:23:59;;;;;;;56.63;38.88;;;3.60;99.90;;;;;;4971979;28;20414;-84
2021/11/29 10:26:35;;;;;;;61.27;40.53;;;3.60;99.90;;;;;;4953909;28;20386;-84
2021/11/29 10:29:11;;;;;;;63.25;41.40;;;3.60;99.90;;;;;;4970298;28;20785;-84
2021/11/29 10:31:53;;;;;;;58.60;40.53;;;3.70;99.90;;;;;;4970573;28;20378;-86
2021/11/29 10:34:24;;;;;;;57.95;39.35;;;3.90;99.90;;;;;;4954025;28;20489;-84
2021/11/29 10:37:13;;;;;;;58.67;39.40;;;3.90;99.90;;;;;;4971930;28;20796;-85
2021/11/29 10:39:43;;;;;;;58.22;39.85;;;3.60;99.90;;;;;;4953359;28;20390;-83
2021/11/29 10:42:12;;;;;;;55.13;38.42;;;3.50;99.90;;;;;;4953066;28;20896;-84
2021/11/29 10:44:44;;;;;;;52.63;36.85;;;3.60;99.90;;;;;;4970522;28;20408;-87
2021/11/29 10:47:16;;;;;;;49.22;33.67;;;3.70;99.90;;;;;;4970636;28;20383;-85
2021/11/29 10:49:48;;;;;;;45.88;32.70;;;3.80;99.90;;;;;;4953808;28;20414;-83
2021/11/29 10:52:21;;;;;;;40.90;31.00;;;4.00;99.90;;;;;;4970014;28;20394;-82
2021/11/29 10:54:47;;;;;;;41.47;30.30;;;4.20;99.90;;;;;;4950410;28;20402;-84
2021/11/29 10:57:16;;;;;;;42.05;30.90;;;4.30;99.90;;;;;;4971998;28;20398;-83
2021/11/29 10:59:44;;;;;;;38.15;28.20;;;4.50;99.90;;;;;;4953905;28;20399;-86
2021/11/29 11:02:24;;;;;;;40.10;31.05;;;4.60;99.90;;;;;;4960535;28;20414;-85
2021/11/29 11:05:09;;;;;;;42.92;31.83;;;4.50;99.90;;;;;;4965781;28;20382;-85
2021/11/29 11:07:37;;;;;;;52.63;36.42;;;4.50;99.90;;;;;;4966308;28;20394;-85
2021/11/29 11:10:13;;;;;;;50.13;34.17;;;4.20;99.90;;;;;;4965345;28;21023;-83
2021/11/29 11:12:39;;;;;;;44.97;30.40;;;4.10;99.90;;;;;;4957165;28;20395;-85
2021/11/29 11:15:13;;;;;;;45.80;32.17;;;4.10;99.90;;;;;;4968035;28;20406;-85
2021/11/29 11:17:39;;;;;;;42.15;29.80;;;4.10;99.90;;;;;;4966607;28;20397;-86
2021/11/29 11:20:13;;;;;;;35.85;26.27;;;4.00;99.90;;;;;;4967818;28;20489;-85
2021/11/29 11:22:41;;;;;;;29.23;22.23;;;4.20;99.90;;;;;;4969525;28;20386;-83
2021/11/29 11:25:09;;;;;;;33.83;24.02;;;4.30;99.90;;;;;;4968831;28;20409;-84
2021/11/29 11:27:53;;;;;;;30.42;22.40;;;4.30;99.90;;;;;;4969518;28;20927;-87
2021/11/29 11:30:20;;;;;;;31.73;22.70;;;4.30;99.90;;;;;;4964793;28;20435;-85
2021/11/29 11:32:55;;;;;;;30.80;22.92;;;4.20;99.90;;;;;;4970967;28;20382;-85
2021/11/29 11:35:25;;;;;;;27.63;20.83;;;4.20;99.90;;;;;;4967449;28;20393;-87
2021/11/29 11:38:13;;;;;;;25.20;19.63;;;4.20;99.90;;;;;;4969481;28;20518;-83
2021/11/29 11:40:41;;;;;;;26.98;20.00;;;4.00;99.90;;;;;;4957756;28;20434;-84
2021/11/29 11:43:09;;;;;;;26.10;19.70;;;4.10;99.90;;;;;;4969176;28;20482;-85
2021/11/29 11:45:38;;;;;;;23.42;18.58;;;4.10;99.90;;;;;;4969093;28;20389;-83
2021/11/29 11:48:05;;;;;;;21.67;17.73;;;4.20;99.90;;;;;;4983682;28;20402;-86
2021/11/29 11:50:37;;;;;;;31.27;24.05;;;4.30;99.90;;;;;;4968829;28;20446;-85
2021/11/29 11:53:05;;;;;;;30.73;23.63;;;4.20;99.90;;;;;;4969099;28;20520;-83
2021/11/29 11:55:37;;;;;;;34.50;26.30;;;4.20;99.90;;;;;;4968372;28;20382;-83
2021/11/29 11:58:10;;;;;;;21.67;18.23;;;4.20;99.90;;;;;;4969187;28;20767;-81
2021/11/29 12:00:43;;;;;;;31.77;22.40;;;4.50;99.90;;;;;;4969406;28;20461;-86
2021/11/29 12:03:16;;;;;;;54.80;32.13;;;4.40;99.90;;;;;;4974751;28;20397;-83
2021/11/29 12:05:49;;;;;;;53.43;31.57;;;4.40;99.90;;;;;;4968560;28;20465;-86
2021/11/29 12:08:35;;;;;;;44.63;27.42;;;4.40;99.90;;;;;;4965777;28;20931;-87
2021/11/29 12:11:05;;;;;;;31.63;22.67;;;4.30;99.90;;;;;;4965831;28;20406;-87
2021/11/29 12:13:44;;;;;;;26.17;20.85;;;4.20;99.90;;;;;;4983686;28;20916;-85
2021/11/29 12:16:11;;;;;;;30.02;23.50;;;3.80;99.90;;;;;;4971252;28;20753;-81
2021/11/29 12:18:40;;;;;;;27.10;21.38;;;3.80;99.90;;;;;;4973410;28;20888;-88
2021/11/29 12:21:12;;;;;;;19.30;16.60;;;3.70;99.90;;;;;;4973791;28;20403;-83
2021/11/29 12:23:42;;;;;;;23.90;19.55;;;3.60;99.90;;;;;;4971765;28;20390;-84
2021/11/29 12:26:08;;;;;;;20.35;16.83;;;3.60;99.90;;;;;;4973409;28;20425;-86
2021/11/29 12:28:39;;;;;;;21.67;17.25;;;3.60;99.90;;;;;;4955768;28;20438;-84
2021/11/29 12:31:39;;;;;;;42.30;28.30;;;3.60;99.90;;;;;;4956056;28;20907;-86
2021/11/29 12:34:09;;;;;;;16.67;13.35;;;3.60;99.90;;;;;;4954935;28;20398;-81
2021/11/29 12:36:59;;;;;;;22.97;16.63;;;3.80;99.90;;;;;;4973131;28;20442;-82
2021/11/29 12:39:59;;;;;;;17.38;14.40;;;3.90;99.90;;;;;;4982662;28;20477;-82
2021/11/29 12:42:46;;;;;;;23.23;17.23;;;4.10;99.90;;;;;;4966660;28;20399;-81
2021/11/29 12:45:20;;;;;;;17.88;13.98;;;4.20;99.90;;;;;;4969380;28;20387;-83
2021/11/29 12:47:47;;;;;;;19.80;15.75;;;4.40;99.90;;;;;;4970359;28;20410;-85
2021/11/29 12:50:35;;;;;;;16.38;12.98;;;4.70;99.90;;;;;;4972361;28;20557;-89
2021/11/29 12:53:21;;;;;;;13.40;11.13;;;4.90;99.90;;;;;;4970149;28;20893;-82
2021/11/29 12:55:54;;;;;;;16.77;13.88;;;4.90;99.90;;;;;;4962796;28;20394;-83
2021/11/29 12:58:28;;;;;;;17.27;14.18;;;5.00;99.90;;;;;;4959981;28;20449;-85
2021/11/29 13:01:14;;;;;;;14.60;12.13;;;5.10;99.90;;;;;;4945043;28;20398;-87
2021/11/29 13:03:52;;;;;;;15.02;12.88;;;5.10;99.90;;;;;;4958805;28;20848;-85
2021/11/29 13:06:29;;;;;;;15.75;12.88;;;5.00;99.90;;;;;;4966586;28;20388;-87
2021/11/29 13:08:59;;;;;;;14.50;12.52;;;4.90;99.90;;;;;;4957563;28;20513;-86
2021/11/29 13:11:34;;;;;;;16.85;13.63;;;4.90;99.90;;;;;;4969607;28;20418;-82
2021/11/29 13:14:01;;;;;;;16.20;13.00;;;4.70;99.90;;;;;;4971576;28;20390;-86
2021/11/29 13:16:29;;;;;;;15.93;13.43;;;4.50;99.90;;;;;;4969677;28;20394;-84
2021/11/29 13:19:07;;;;;;;48.35;27.35;;;4.40;99.90;;;;;;4970429;28;20422;-88
2021/11/29 13:21:41;;;;;;;38.00;26.33;;;4.40;99.90;;;;;;4958915;28;20395;-89
2021/11/29 13:24:24;;;;;;;27.88;19.88;;;4.40;99.90;;;;;;4959534;28;20391;-88
2021/11/29 13:26:59;;;;;;;18.30;15.17;;;4.40;99.90;;;;;;4972573;28;20901;-88
2021/11/29 13:29:41;;;;;;;21.90;17.02;;;4.50;99.90;;;;;;4961501;28;20414;-91
2021/11/29 13:32:19;;;;;;;18.40;16.35;;;4.50;99.90;;;;;;4981976;28;20497;-86
2021/11/29 13:34:56;;;;;;;15.25;13.40;;;4.70;99.90;;;;;;4976496;28;20797;-83
2021/11/29 13:37:34;;;;;;;15.52;13.30;;;4.70;99.90;;;;;;4981815;28;20489;-82
2021/11/29 13:40:04;;;;;;;17.38;14.48;;;4.70;99.90;;;;;;4976915;28;20390;-86
2021/11/29 13:42:37;;;;;;;16.30;14.27;;;4.80;99.90;;;;;;4964532;28;21043;-88
2021/11/29 13:45:13;;;;;;;22.02;17.55;;;4.80;99.90;;;;;;4959579;28;20911;-86
2021/11/29 13:48:06;;;;;;;15.18;13.48;;;4.70;99.90;;;;;;4958980;28;20402;-86